sensor_id;sensor_type;location;lat;lon;timestamp;P1;durP1;ratioP1;P2;durP2;ratioP2
65033;SDS011;51601;51.356;12.458;2022-11-15T00:02:36;22.20;;;10.50;;
65033;SDS011;51601;51.356;12.458;2022-11-15T00:07:08;25.88;;;11.40;;
65033;SDS011;51601;51.356;12.458;2022-11-15T00:11:52;20.85;;;9.68;;
65033;SDS011;51601;51.356;12.458;2022-11-15T00:16:24;20.20;;;9.20;;
65033;SDS011;51601;51.356;12.458;2022-11-15T00:21:02;22.60;;;9.70;;
65033;SDS011;51601;51.356;12.458;2022-11-15T00:25:35;23.75;;;10.38;;
65033;SDS011;51601;51.356;12.458;2022-11-15T00:30:08;18.45;;;7.95;;
65033;SDS011;51601;51.356;12.458;2022-11-15T00:34:41;20.47;;;10.33;;
65033;SDS011;51601;51.356;12.458;2022-11-15T00:39:15;20.85;;;9.30;;
65033;SDS011;51601;51.356;12.458;2022-11-15T00:43:47;18.77;;;9.48;;
65033;SDS011;51601;51.356;12.458;2022-11-15T00:48:20;15.97;;;7.70;;
65033;SDS011;51601;51.356;12.458;2022-11-15T00:52:52;16.55;;;8.52;;
65033;SDS011;51601;51.356;12.458;2022-11-15T00:57:26;15.65;;;7.70;;
65033;SDS011;51601;51.356;12.458;2022-11-15T01:01:58;14.38;;;6.50;;
65033;SDS011;51601;51.356;12.458;2022-11-15T01:06:30;15.73;;;6.97;;
65033;SDS011;51601;51.356;12.458;2022-11-15T01:11:03;14.23;;;6.07;;
65033;SDS011;51601;51.356;12.458;2022-11-15T01:15:40;14.27;;;6.03;;
65033;SDS011;51601;51.356;12.458;2022-11-15T01:20:12;12.97;;;5.83;;
65033;SDS011;51601;51.356;12.458;2022-11-15T01:24:45;16.35;;;6.57;;
65033;SDS011;51601;51.356;12.458;2022-11-15T01:29:17;15.35;;;6.72;;
65033;SDS011;51601;51.356;12.458;2022-11-15T01:33:51;11.03;;;5.47;;
65033;SDS011;51601;51.356;12.458;2022-11-15T01:38:23;14.60;;;6.75;;
65033;SDS011;51601;51.356;12.458;2022-11-15T01:42:55;13.35;;;6.30;;
65033;SDS011;51601;51.356;12.458;2022-11-15T01:47:27;15.35;;;7.75;;
65033;SDS011;51601;51.356;12.458;2022-11-15T01:52:04;11.63;;;5.53;;
65033;SDS011;51601;51.356;12.458;2022-11-15T01:56:40;15.25;;;7.28;;
65033;SDS011;51601;51.356;12.458;2022-11-15T02:01:17;15.15;;;6.95;;
65033;SDS011;51601;51.356;12.458;2022-11-15T02:05:50;11.43;;;5.37;;
65033;SDS011;51601;51.356;12.458;2022-11-15T02:10:24;12.50;;;5.60;;
65033;SDS011;51601;51.356;12.458;2022-11-15T02:14:57;15.32;;;6.85;;
65033;SDS011;51601;51.356;12.458;2022-11-15T02:19:36;12.47;;;5.63;;
65033;SDS011;51601;51.356;12.458;2022-11-15T02:24:45;11.82;;;5.93;;
65033;SDS011;51601;51.356;12.458;2022-11-15T02:29:37;11.07;;;4.70;;
65033;SDS011;51601;51.356;12.458;2022-11-15T02:34:30;10.45;;;5.35;;
65033;SDS011;51601;51.356;12.458;2022-11-15T02:39:14;10.43;;;5.00;;
65033;SDS011;51601;51.356;12.458;2022-11-15T02:43:57;13.70;;;6.80;;
65033;SDS011;51601;51.356;12.458;2022-11-15T02:48:32;12.75;;;6.03;;
65033;SDS011;51601;51.356;12.458;2022-11-15T02:53:08;13.37;;;5.87;;
65033;SDS011;51601;51.356;12.458;2022-11-15T02:57:42;13.52;;;6.20;;
65033;SDS011;51601;51.356;12.458;2022-11-15T03:02:26;14.57;;;7.10;;
65033;SDS011;51601;51.356;12.458;2022-11-15T03:07:13;12.47;;;6.00;;
65033;SDS011;51601;51.356;12.458;2022-11-15T03:11:55;16.42;;;7.65;;
65033;SDS011;51601;51.356;12.458;2022-11-15T03:16:33;16.98;;;7.78;;
65033;SDS011;51601;51.356;12.458;2022-11-15T03:21:09;16.02;;;8.20;;
65033;SDS011;51601;51.356;12.458;2022-11-15T03:25:44;14.30;;;7.07;;
65033;SDS011;51601;51.356;12.458;2022-11-15T03:30:21;14.77;;;6.93;;
65033;SDS011;51601;51.356;12.458;2022-11-15T03:34:55;12.25;;;4.93;;
65033;SDS011;51601;51.356;12.458;2022-11-15T03:39:30;11.50;;;4.83;;
65033;SDS011;51601;51.356;12.458;2022-11-15T03:44:04;11.93;;;5.53;;
65033;SDS011;51601;51.356;12.458;2022-11-15T03:48:48;9.52;;;4.20;;
65033;SDS011;51601;51.356;12.458;2022-11-15T03:53:23;11.67;;;4.67;;
65033;SDS011;51601;51.356;12.458;2022-11-15T03:57:56;13.05;;;5.18;;
65033;SDS011;51601;51.356;12.458;2022-11-15T04:02:30;11.95;;;5.47;;
65033;SDS011;51601;51.356;12.458;2022-11-15T04:07:04;11.60;;;5.07;;
65033;SDS011;51601;51.356;12.458;2022-11-15T04:11:36;11.00;;;3.97;;
65033;SDS011;51601;51.356;12.458;2022-11-15T04:16:09;10.98;;;4.45;;
65033;SDS011;51601;51.356;12.458;2022-11-15T04:20:41;12.30;;;6.30;;
65033;SDS011;51601;51.356;12.458;2022-11-15T04:25:32;13.37;;;6.67;;
65033;SDS011;51601;51.356;12.458;2022-11-15T04:30:05;14.90;;;7.15;;
65033;SDS011;51601;51.356;12.458;2022-11-15T04:34:38;13.07;;;6.80;;
65033;SDS011;51601;51.356;12.458;2022-11-15T04:39:11;14.63;;;6.37;;
65033;SDS011;51601;51.356;12.458;2022-11-15T04:43:44;14.57;;;6.45;;
65033;SDS011;51601;51.356;12.458;2022-11-15T04:48:16;13.02;;;5.95;;
65033;SDS011;51601;51.356;12.458;2022-11-15T04:52:52;14.45;;;6.57;;
65033;SDS011;51601;51.356;12.458;2022-11-15T04:57:25;11.50;;;5.97;;
65033;SDS011;51601;51.356;12.458;2022-11-15T05:01:58;15.18;;;6.88;;
65033;SDS011;51601;51.356;12.458;2022-11-15T05:06:31;15.38;;;7.07;;
65033;SDS011;51601;51.356;12.458;2022-11-15T05:11:03;14.03;;;7.07;;
65033;SDS011;51601;51.356;12.458;2022-11-15T05:15:35;16.05;;;7.05;;
65033;SDS011;51601;51.356;12.458;2022-11-15T05:20:10;12.15;;;5.70;;
65033;SDS011;51601;51.356;12.458;2022-11-15T05:24:42;12.60;;;5.60;;
65033;SDS011;51601;51.356;12.458;2022-11-15T05:29:14;15.77;;;7.30;;
65033;SDS011;51601;51.356;12.458;2022-11-15T05:33:48;16.85;;;6.85;;
65033;SDS011;51601;51.356;12.458;2022-11-15T05:38:22;14.93;;;6.15;;
65033;SDS011;51601;51.356;12.458;2022-11-15T05:42:55;14.93;;;6.73;;
65033;SDS011;51601;51.356;12.458;2022-11-15T05:47:27;15.43;;;7.90;;
65033;SDS011;51601;51.356;12.458;2022-11-15T05:52:02;17.35;;;7.65;;
65033;SDS011;51601;51.356;12.458;2022-11-15T05:56:37;15.47;;;6.93;;
65033;SDS011;51601;51.356;12.458;2022-11-15T06:01:10;14.15;;;6.55;;
65033;SDS011;51601;51.356;12.458;2022-11-15T06:05:42;11.65;;;5.35;;
65033;SDS011;51601;51.356;12.458;2022-11-15T06:10:15;16.50;;;6.87;;
65033;SDS011;51601;51.356;12.458;2022-11-15T06:14:49;13.32;;;6.32;;
65033;SDS011;51601;51.356;12.458;2022-11-15T06:19:21;11.77;;;5.47;;
65033;SDS011;51601;51.356;12.458;2022-11-15T06:23:53;14.80;;;7.32;;
65033;SDS011;51601;51.356;12.458;2022-11-15T06:28:27;14.10;;;7.07;;
65033;SDS011;51601;51.356;12.458;2022-11-15T06:33:02;16.02;;;7.00;;
65033;SDS011;51601;51.356;12.458;2022-11-15T06:37:36;13.48;;;6.88;;
65033;SDS011;51601;51.356;12.458;2022-11-15T06:42:08;14.13;;;7.13;;
65033;SDS011;51601;51.356;12.458;2022-11-15T06:46:41;15.48;;;7.10;;
65033;SDS011;51601;51.356;12.458;2022-11-15T06:51:14;14.23;;;7.78;;
65033;SDS011;51601;51.356;12.458;2022-11-15T06:55:46;14.53;;;7.30;;
65033;SDS011;51601;51.356;12.458;2022-11-15T07:00:24;15.82;;;7.38;;
65033;SDS011;51601;51.356;12.458;2022-11-15T07:04:56;15.27;;;7.13;;
65033;SDS011;51601;51.356;12.458;2022-11-15T07:09:30;14.20;;;7.45;;
65033;SDS011;51601;51.356;12.458;2022-11-15T07:14:02;13.67;;;6.67;;
65033;SDS011;51601;51.356;12.458;2022-11-15T07:18:35;11.90;;;5.75;;
65033;SDS011;51601;51.356;12.458;2022-11-15T07:23:08;15.48;;;5.88;;
65033;SDS011;51601;51.356;12.458;2022-11-15T07:27:41;15.00;;;6.47;;
65033;SDS011;51601;51.356;12.458;2022-11-15T07:32:13;12.50;;;6.15;;
65033;SDS011;51601;51.356;12.458;2022-11-15T07:36:46;11.57;;;5.60;;
65033;SDS011;51601;51.356;12.458;2022-11-15T07:41:18;13.47;;;6.90;;
65033;SDS011;51601;51.356;12.458;2022-11-15T07:45:52;12.98;;;6.45;;
65033;SDS011;51601;51.356;12.458;2022-11-15T07:50:29;12.23;;;5.80;;
65033;SDS011;51601;51.356;12.458;2022-11-15T07:55:01;15.18;;;6.40;;
65033;SDS011;51601;51.356;12.458;2022-11-15T07:59:33;12.43;;;5.83;;
65033;SDS011;51601;51.356;12.458;2022-11-15T08:04:07;12.32;;;5.70;;
65033;SDS011;51601;51.356;12.458;2022-11-15T08:08:42;11.98;;;5.78;;
65033;SDS011;51601;51.356;12.458;2022-11-15T08:13:14;11.40;;;5.83;;
65033;SDS011;51601;51.356;12.458;2022-11-15T08:17:46;11.60;;;6.05;;
65033;SDS011;51601;51.356;12.458;2022-11-15T08:22:20;10.07;;;5.88;;
65033;SDS011;51601;51.356;12.458;2022-11-15T08:26:52;11.10;;;5.13;;
65033;SDS011;51601;51.356;12.458;2022-11-15T08:31:25;11.63;;;5.60;;
65033;SDS011;51601;51.356;12.458;2022-11-15T08:35:57;12.25;;;6.00;;
65033;SDS011;51601;51.356;12.458;2022-11-15T08:40:31;11.27;;;5.25;;
65033;SDS011;51601;51.356;12.458;2022-11-15T08:45:04;10.20;;;5.33;;
65033;SDS011;51601;51.356;12.458;2022-11-15T08:49:37;9.63;;;5.35;;
65033;SDS011;51601;51.356;12.458;2022-11-15T08:54:09;10.23;;;5.25;;
65033;SDS011;51601;51.356;12.458;2022-11-15T08:58:43;10.40;;;5.80;;
65033;SDS011;51601;51.356;12.458;2022-11-15T09:03:15;10.00;;;5.25;;
65033;SDS011;51601;51.356;12.458;2022-11-15T09:07:47;9.77;;;4.80;;
65033;SDS011;51601;51.356;12.458;2022-11-15T09:12:23;9.43;;;5.10;;
65033;SDS011;51601;51.356;12.458;2022-11-15T09:16:57;11.00;;;4.63;;
65033;SDS011;51601;51.356;12.458;2022-11-15T09:21:30;10.18;;;5.10;;
65033;SDS011;51601;51.356;12.458;2022-11-15T09:26:03;9.63;;;5.13;;
65033;SDS011;51601;51.356;12.458;2022-11-15T09:30:36;9.53;;;5.10;;
65033;SDS011;51601;51.356;12.458;2022-11-15T09:35:10;9.38;;;4.57;;
65033;SDS011;51601;51.356;12.458;2022-11-15T09:39:42;9.13;;;4.25;;
65033;SDS011;51601;51.356;12.458;2022-11-15T09:49:14;10.48;;;5.38;;
65033;SDS011;51601;51.356;12.458;2022-11-15T09:53:51;11.07;;;4.75;;
65033;SDS011;51601;51.356;12.458;2022-11-15T09:58:36;10.20;;;5.10;;
65033;SDS011;51601;51.356;12.458;2022-11-15T10:02:57;10.85;;;5.28;;
65033;SDS011;51601;51.356;12.458;2022-11-15T10:07:18;6.47;;;3.25;;
65033;SDS011;51601;51.356;12.458;2022-11-15T10:11:37;9.93;;;4.63;;
65033;SDS011;51601;51.356;12.458;2022-11-15T10:15:53;9.10;;;5.07;;
65033;SDS011;51601;51.356;12.458;2022-11-15T10:20:13;9.32;;;4.82;;
65033;SDS011;51601;51.356;12.458;2022-11-15T10:24:32;9.55;;;4.10;;
65033;SDS011;51601;51.356;12.458;2022-11-15T10:28:49;8.80;;;4.53;;
65033;SDS011;51601;51.356;12.458;2022-11-15T10:33:21;8.65;;;4.28;;
65033;SDS011;51601;51.356;12.458;2022-11-15T10:37:38;8.48;;;3.60;;
65033;SDS011;51601;51.356;12.458;2022-11-15T10:41:52;8.23;;;3.93;;
65033;SDS011;51601;51.356;12.458;2022-11-15T10:46:16;7.75;;;4.00;;
65033;SDS011;51601;51.356;12.458;2022-11-15T10:50:53;8.48;;;4.30;;
65033;SDS011;51601;51.356;12.458;2022-11-15T10:55:20;7.75;;;3.92;;
65033;SDS011;51601;51.356;12.458;2022-11-15T10:59:37;8.30;;;3.97;;
65033;SDS011;51601;51.356;12.458;2022-11-15T11:03:58;8.65;;;4.38;;
65033;SDS011;51601;51.356;12.458;2022-11-15T11:08:20;10.15;;;4.30;;
65033;SDS011;51601;51.356;12.458;2022-11-15T11:12:35;9.33;;;4.50;;
65033;SDS011;51601;51.356;12.458;2022-11-15T11:16:50;7.90;;;3.90;;
65033;SDS011;51601;51.356;12.458;2022-11-15T11:21:10;8.77;;;4.40;;
65033;SDS011;51601;51.356;12.458;2022-11-15T11:25:29;8.53;;;4.37;;
65033;SDS011;51601;51.356;12.458;2022-11-15T11:29:52;7.97;;;4.53;;
65033;SDS011;51601;51.356;12.458;2022-11-15T11:34:17;9.85;;;4.45;;
65033;SDS011;51601;51.356;12.458;2022-11-15T11:38:50;10.45;;;4.63;;
65033;SDS011;51601;51.356;12.458;2022-11-15T11:43:12;9.13;;;4.03;;
65033;SDS011;51601;51.356;12.458;2022-11-15T11:47:35;9.10;;;3.80;;
65033;SDS011;51601;51.356;12.458;2022-11-15T11:51:54;8.48;;;3.60;;
65033;SDS011;51601;51.356;12.458;2022-11-15T11:56:16;7.07;;;4.10;;
65033;SDS011;51601;51.356;12.458;2022-11-15T12:00:38;7.72;;;4.35;;
65033;SDS011;51601;51.356;12.458;2022-11-15T12:04:57;9.18;;;4.40;;
65033;SDS011;51601;51.356;12.458;2022-11-15T12:09:21;10.70;;;4.60;;
65033;SDS011;51601;51.356;12.458;2022-11-15T12:13:43;10.45;;;3.40;;
65033;SDS011;51601;51.356;12.458;2022-11-15T12:17:57;6.97;;;3.38;;
65033;SDS011;51601;51.356;12.458;2022-11-15T12:22:16;8.23;;;3.30;;
65033;SDS011;51601;51.356;12.458;2022-11-15T12:26:34;8.57;;;3.20;;
65033;SDS011;51601;51.356;12.458;2022-11-15T12:30:54;6.85;;;3.22;;
65033;SDS011;51601;51.356;12.458;2022-11-15T12:35:20;7.28;;;3.35;;
65033;SDS011;51601;51.356;12.458;2022-11-15T12:40:03;7.43;;;3.50;;
65033;SDS011;51601;51.356;12.458;2022-11-15T12:49:23;11.23;;;4.30;;
65033;SDS011;51601;51.356;12.458;2022-11-15T12:53:56;8.23;;;3.20;;
65033;SDS011;51601;51.356;12.458;2022-11-15T12:58:26;8.57;;;3.22;;
65033;SDS011;51601;51.356;12.458;2022-11-15T13:02:42;7.13;;;3.10;;
65033;SDS011;51601;51.356;12.458;2022-11-15T13:06:59;6.45;;;2.20;;
65033;SDS011;51601;51.356;12.458;2022-11-15T13:16:04;6.63;;;3.42;;
65033;SDS011;51601;51.356;12.458;2022-11-15T13:20:23;8.30;;;3.53;;
65033;SDS011;51601;51.356;12.458;2022-11-15T13:24:41;7.80;;;3.60;;
65033;SDS011;51601;51.356;12.458;2022-11-15T13:28:54;7.78;;;3.53;;
65033;SDS011;51601;51.356;12.458;2022-11-15T13:33:09;7.68;;;3.67;;
65033;SDS011;51601;51.356;12.458;2022-11-15T13:37:30;7.23;;;3.70;;
65033;SDS011;51601;51.356;12.458;2022-11-15T13:41:47;7.80;;;3.10;;
65033;SDS011;51601;51.356;12.458;2022-11-15T13:46:06;8.15;;;3.60;;
65033;SDS011;51601;51.356;12.458;2022-11-15T13:50:25;7.30;;;3.60;;
65033;SDS011;51601;51.356;12.458;2022-11-15T13:54:42;8.37;;;3.40;;
65033;SDS011;51601;51.356;12.458;2022-11-15T13:58:59;9.85;;;4.10;;
65033;SDS011;51601;51.356;12.458;2022-11-15T14:03:15;10.15;;;3.70;;
65033;SDS011;51601;51.356;12.458;2022-11-15T14:07:32;8.57;;;3.70;;
65033;SDS011;51601;51.356;12.458;2022-11-15T14:11:55;9.23;;;3.30;;
65033;SDS011;51601;51.356;12.458;2022-11-15T14:16:14;8.45;;;4.03;;
65033;SDS011;51601;51.356;12.458;2022-11-15T14:20:31;8.30;;;3.70;;
65033;SDS011;51601;51.356;12.458;2022-11-15T14:24:50;8.52;;;3.72;;
65033;SDS011;51601;51.356;12.458;2022-11-15T14:29:26;8.65;;;3.85;;
65033;SDS011;51601;51.356;12.458;2022-11-15T14:33:43;9.52;;;3.90;;
65033;SDS011;51601;51.356;12.458;2022-11-15T14:38:00;13.10;;;4.33;;
65033;SDS011;51601;51.356;12.458;2022-11-15T14:42:14;10.63;;;4.18;;
65033;SDS011;51601;51.356;12.458;2022-11-15T14:46:28;8.75;;;4.10;;
65033;SDS011;51601;51.356;12.458;2022-11-15T14:50:43;10.47;;;4.47;;
65033;SDS011;51601;51.356;12.458;2022-11-15T14:54:57;11.25;;;4.60;;
65033;SDS011;51601;51.356;12.458;2022-11-15T14:59:11;8.18;;;3.90;;
65033;SDS011;51601;51.356;12.458;2022-11-15T15:03:25;11.10;;;4.70;;
65033;SDS011;51601;51.356;12.458;2022-11-15T15:07:41;11.43;;;4.68;;
65033;SDS011;51601;51.356;12.458;2022-11-15T15:11:55;12.05;;;4.38;;
65033;SDS011;51601;51.356;12.458;2022-11-15T15:16:18;8.82;;;4.25;;
65033;SDS011;51601;51.356;12.458;2022-11-15T15:20:32;11.23;;;4.67;;
65033;SDS011;51601;51.356;12.458;2022-11-15T15:24:47;12.98;;;4.57;;
65033;SDS011;51601;51.356;12.458;2022-11-15T15:29:01;12.75;;;5.15;;
65033;SDS011;51601;51.356;12.458;2022-11-15T15:33:15;12.53;;;5.90;;
65033;SDS011;51601;51.356;12.458;2022-11-15T15:37:29;10.48;;;5.07;;
65033;SDS011;51601;51.356;12.458;2022-11-15T15:41:46;14.35;;;4.95;;
65033;SDS011;51601;51.356;12.458;2022-11-15T15:46:07;13.67;;;5.27;;
65033;SDS011;51601;51.356;12.458;2022-11-15T15:50:23;17.02;;;6.90;;
65033;SDS011;51601;51.356;12.458;2022-11-15T15:54:39;18.25;;;7.25;;
65033;SDS011;51601;51.356;12.458;2022-11-15T15:58:55;13.40;;;6.05;;
65033;SDS011;51601;51.356;12.458;2022-11-15T16:03:09;13.73;;;6.40;;
65033;SDS011;51601;51.356;12.458;2022-11-15T16:07:24;13.63;;;6.65;;
65033;SDS011;51601;51.356;12.458;2022-11-15T16:11:40;13.88;;;7.65;;
65033;SDS011;51601;51.356;12.458;2022-11-15T16:15:56;16.93;;;8.30;;
65033;SDS011;51601;51.356;12.458;2022-11-15T16:20:26;17.35;;;8.52;;
65033;SDS011;51601;51.356;12.458;2022-11-15T16:24:44;20.33;;;10.25;;
65033;SDS011;51601;51.356;12.458;2022-11-15T16:28:58;20.57;;;10.67;;
65033;SDS011;51601;51.356;12.458;2022-11-15T16:33:13;21.17;;;11.15;;
65033;SDS011;51601;51.356;12.458;2022-11-15T16:37:29;26.30;;;12.32;;
65033;SDS011;51601;51.356;12.458;2022-11-15T16:41:43;25.27;;;13.15;;
65033;SDS011;51601;51.356;12.458;2022-11-15T16:45:58;26.53;;;12.63;;
65033;SDS011;51601;51.356;12.458;2022-11-15T16:50:26;26.08;;;13.98;;
65033;SDS011;51601;51.356;12.458;2022-11-15T16:54:41;29.83;;;14.38;;
65033;SDS011;51601;51.356;12.458;2022-11-15T16:58:56;28.40;;;14.63;;
65033;SDS011;51601;51.356;12.458;2022-11-15T17:03:11;28.92;;;14.80;;
65033;SDS011;51601;51.356;12.458;2022-11-15T17:07:26;29.42;;;14.88;;
65033;SDS011;51601;51.356;12.458;2022-11-15T17:11:40;32.20;;;15.80;;
65033;SDS011;51601;51.356;12.458;2022-11-15T17:16:02;30.95;;;15.38;;
65033;SDS011;51601;51.356;12.458;2022-11-15T17:20:20;32.38;;;15.95;;
65033;SDS011;51601;51.356;12.458;2022-11-15T17:24:35;33.25;;;17.63;;
65033;SDS011;51601;51.356;12.458;2022-11-15T17:28:53;31.27;;;16.50;;
65033;SDS011;51601;51.356;12.458;2022-11-15T17:33:07;33.35;;;16.92;;
65033;SDS011;51601;51.356;12.458;2022-11-15T17:37:21;31.27;;;16.48;;
65033;SDS011;51601;51.356;12.458;2022-11-15T17:41:36;34.27;;;17.07;;
65033;SDS011;51601;51.356;12.458;2022-11-15T17:45:50;34.33;;;16.08;;
65033;SDS011;51601;51.356;12.458;2022-11-15T17:50:04;33.63;;;16.80;;
65033;SDS011;51601;51.356;12.458;2022-11-15T17:54:18;33.47;;;17.20;;
65033;SDS011;51601;51.356;12.458;2022-11-15T17:58:33;34.92;;;17.50;;
65033;SDS011;51601;51.356;12.458;2022-11-15T18:02:48;38.67;;;18.52;;
65033;SDS011;51601;51.356;12.458;2022-11-15T18:07:01;34.25;;;17.65;;
65033;SDS011;51601;51.356;12.458;2022-11-15T18:11:16;33.57;;;16.40;;
65033;SDS011;51601;51.356;12.458;2022-11-15T18:15:34;34.65;;;17.02;;
65033;SDS011;51601;51.356;12.458;2022-11-15T18:19:48;34.55;;;17.35;;
65033;SDS011;51601;51.356;12.458;2022-11-15T18:24:01;38.23;;;18.60;;
65033;SDS011;51601;51.356;12.458;2022-11-15T18:28:16;31.33;;;17.88;;
65033;SDS011;51601;51.356;12.458;2022-11-15T18:32:32;37.40;;;19.23;;
65033;SDS011;51601;51.356;12.458;2022-11-15T18:36:47;39.63;;;19.53;;
65033;SDS011;51601;51.356;12.458;2022-11-15T18:41:04;33.63;;;19.02;;
65033;SDS011;51601;51.356;12.458;2022-11-15T18:45:19;39.08;;;18.23;;
65033;SDS011;51601;51.356;12.458;2022-11-15T18:49:36;30.75;;;15.48;;
65033;SDS011;51601;51.356;12.458;2022-11-15T18:53:51;35.60;;;17.63;;
65033;SDS011;51601;51.356;12.458;2022-11-15T18:58:05;26.88;;;14.38;;
65033;SDS011;51601;51.356;12.458;2022-11-15T19:02:19;35.47;;;18.55;;
65033;SDS011;51601;51.356;12.458;2022-11-15T19:06:37;39.47;;;20.77;;
65033;SDS011;51601;51.356;12.458;2022-11-15T19:10:52;36.60;;;17.23;;
65033;SDS011;51601;51.356;12.458;2022-11-15T19:15:06;36.85;;;18.85;;
65033;SDS011;51601;51.356;12.458;2022-11-15T19:19:21;35.53;;;18.77;;
65033;SDS011;51601;51.356;12.458;2022-11-15T19:23:38;33.05;;;18.33;;
65033;SDS011;51601;51.356;12.458;2022-11-15T19:27:53;31.05;;;13.93;;
65033;SDS011;51601;51.356;12.458;2022-11-15T19:32:06;36.38;;;19.00;;
65033;SDS011;51601;51.356;12.458;2022-11-15T19:36:21;36.47;;;19.63;;
65033;SDS011;51601;51.356;12.458;2022-11-15T19:40:41;32.70;;;16.60;;
65033;SDS011;51601;51.356;12.458;2022-11-15T19:44:57;36.90;;;17.92;;
65033;SDS011;51601;51.356;12.458;2022-11-15T19:49:11;37.20;;;19.60;;
65033;SDS011;51601;51.356;12.458;2022-11-15T19:53:28;31.80;;;16.50;;
65033;SDS011;51601;51.356;12.458;2022-11-15T19:57:47;33.47;;;18.75;;
65033;SDS011;51601;51.356;12.458;2022-11-15T20:02:01;32.23;;;17.97;;
65033;SDS011;51601;51.356;12.458;2022-11-15T20:06:16;29.00;;;15.57;;
65033;SDS011;51601;51.356;12.458;2022-11-15T20:10:31;29.25;;;14.52;;
65033;SDS011;51601;51.356;12.458;2022-11-15T20:14:47;27.88;;;11.63;;
65033;SDS011;51601;51.356;12.458;2022-11-15T20:19:06;24.63;;;12.87;;
65033;SDS011;51601;51.356;12.458;2022-11-15T20:23:22;29.17;;;13.63;;
65033;SDS011;51601;51.356;12.458;2022-11-15T20:27:39;26.52;;;14.07;;
65033;SDS011;51601;51.356;12.458;2022-11-15T20:31:54;28.70;;;15.10;;
65033;SDS011;51601;51.356;12.458;2022-11-15T20:36:09;25.40;;;14.10;;
65033;SDS011;51601;51.356;12.458;2022-11-15T20:40:27;27.35;;;15.10;;
65033;SDS011;51601;51.356;12.458;2022-11-15T20:44:41;27.90;;;12.83;;
65033;SDS011;51601;51.356;12.458;2022-11-15T20:48:56;30.08;;;14.48;;
65033;SDS011;51601;51.356;12.458;2022-11-15T20:53:11;25.42;;;13.95;;
65033;SDS011;51601;51.356;12.458;2022-11-15T20:57:26;21.63;;;12.40;;
65033;SDS011;51601;51.356;12.458;2022-11-15T21:01:40;26.53;;;13.90;;
65033;SDS011;51601;51.356;12.458;2022-11-15T21:05:55;30.85;;;14.60;;
65033;SDS011;51601;51.356;12.458;2022-11-15T21:10:09;26.38;;;13.75;;
65033;SDS011;51601;51.356;12.458;2022-11-15T21:14:42;28.93;;;14.73;;
65033;SDS011;51601;51.356;12.458;2022-11-15T21:19:00;28.65;;;13.05;;
65033;SDS011;51601;51.356;12.458;2022-11-15T21:23:15;27.55;;;14.35;;
65033;SDS011;51601;51.356;12.458;2022-11-15T21:27:29;25.20;;;12.83;;
65033;SDS011;51601;51.356;12.458;2022-11-15T21:31:43;25.60;;;13.77;;
65033;SDS011;51601;51.356;12.458;2022-11-15T21:35:57;24.55;;;13.52;;
65033;SDS011;51601;51.356;12.458;2022-11-15T21:40:14;21.60;;;12.18;;
65033;SDS011;51601;51.356;12.458;2022-11-15T21:44:31;23.80;;;11.87;;
65033;SDS011;51601;51.356;12.458;2022-11-15T21:48:45;23.02;;;11.00;;
65033;SDS011;51601;51.356;12.458;2022-11-15T21:52:59;23.67;;;12.73;;
65033;SDS011;51601;51.356;12.458;2022-11-15T21:57:14;22.80;;;12.60;;
65033;SDS011;51601;51.356;12.458;2022-11-15T22:01:29;22.60;;;11.65;;
65033;SDS011;51601;51.356;12.458;2022-11-15T22:06:01;21.98;;;10.55;;
65033;SDS011;51601;51.356;12.458;2022-11-15T22:10:15;23.77;;;11.13;;
65033;SDS011;51601;51.356;12.458;2022-11-15T22:14:34;21.60;;;10.63;;
65033;SDS011;51601;51.356;12.458;2022-11-15T22:18:48;21.73;;;10.52;;
65033;SDS011;51601;51.356;12.458;2022-11-15T22:23:03;20.38;;;10.43;;
65033;SDS011;51601;51.356;12.458;2022-11-15T22:27:17;21.63;;;11.10;;
65033;SDS011;51601;51.356;12.458;2022-11-15T22:31:36;20.33;;;10.43;;
65033;SDS011;51601;51.356;12.458;2022-11-15T22:35:50;21.65;;;10.18;;
65033;SDS011;51601;51.356;12.458;2022-11-15T22:40:05;25.17;;;11.97;;
65033;SDS011;51601;51.356;12.458;2022-11-15T22:44:20;27.42;;;12.52;;
65033;SDS011;51601;51.356;12.458;2022-11-15T22:48:36;25.40;;;12.13;;
65033;SDS011;51601;51.356;12.458;2022-11-15T22:52:51;27.93;;;12.90;;
65033;SDS011;51601;51.356;12.458;2022-11-15T22:57:05;20.73;;;10.32;;
65033;SDS011;51601;51.356;12.458;2022-11-15T23:01:19;24.95;;;13.13;;
65033;SDS011;51601;51.356;12.458;2022-11-15T23:05:37;26.38;;;12.60;;
65033;SDS011;51601;51.356;12.458;2022-11-15T23:09:52;23.67;;;12.87;;
65033;SDS011;51601;51.356;12.458;2022-11-15T23:14:27;24.67;;;12.80;;
65033;SDS011;51601;51.356;12.458;2022-11-15T23:18:41;23.23;;;12.05;;
65033;SDS011;51601;51.356;12.458;2022-11-15T23:22:59;23.03;;;12.10;;
65033;SDS011;51601;51.356;12.458;2022-11-15T23:27:16;21.75;;;11.35;;
65033;SDS011;51601;51.356;12.458;2022-11-15T23:31:31;21.05;;;10.82;;
65033;SDS011;51601;51.356;12.458;2022-11-15T23:36:13;23.10;;;11.93;;
65033;SDS011;51601;51.356;12.458;2022-11-15T23:40:28;23.15;;;12.20;;
65033;SDS011;51601;51.356;12.458;2022-11-15T23:44:42;25.83;;;12.15;;
65033;SDS011;51601;51.356;12.458;2022-11-15T23:48:56;25.80;;;13.35;;
65033;SDS011;51601;51.356;12.458;2022-11-15T23:53:10;31.73;;;13.97;;
65033;SDS011;51601;51.356;12.458;2022-11-15T23:57:29;27.27;;;13.65;;
